createdAt,value
2023-03-29T03:00:53.451Z,6.90
2023-03-29T03:03:20.857Z,3.43
2023-03-29T03:05:48.966Z,4.20
2023-03-29T03:08:16.168Z,3.50
2023-03-29T03:10:43.328Z,3.60
2023-03-29T03:13:10.477Z,3.57
2023-03-29T03:18:13.281Z,3.20
2023-03-29T03:20:40.709Z,3.40
2023-03-29T03:23:09.554Z,3.27
2023-03-29T03:25:36.714Z,3.43
2023-03-29T03:28:04.985Z,3.60
2023-03-29T03:30:33.818Z,3.20
2023-03-29T03:33:00.980Z,3.40
2023-03-29T03:35:28.525Z,3.50
2023-03-29T03:37:55.760Z,3.00
2023-03-29T03:40:23.000Z,3.10
2023-03-29T03:42:50.117Z,3.50
2023-03-29T03:45:17.306Z,3.63
2023-03-29T03:47:44.535Z,3.40
2023-03-29T03:50:11.864Z,3.50
2023-03-29T03:52:39.003Z,3.13
2023-03-29T03:55:06.428Z,2.83
2023-03-29T03:57:33.667Z,3.20
2023-03-29T04:00:00.823Z,3.13
2023-03-29T04:02:28.243Z,3.10
2023-03-29T04:04:55.463Z,2.80
2023-03-29T04:07:25.295Z,2.77
2023-03-29T04:09:53.071Z,3.30
2023-03-29T04:12:20.713Z,3.17
2023-03-29T04:14:48.497Z,3.13
2023-03-29T04:17:15.686Z,3.20
2023-03-29T04:19:42.837Z,3.20
2023-03-29T04:22:09.999Z,3.00
2023-03-29T04:24:37.119Z,3.37
2023-03-29T04:27:04.332Z,3.27
2023-03-29T04:29:31.490Z,6.23
2023-03-29T04:31:58.625Z,6.60
2023-03-29T04:34:25.767Z,4.50
2023-03-29T04:36:53.039Z,3.60
2023-03-29T04:39:20.167Z,3.27
2023-03-29T04:41:47.312Z,3.40
2023-03-29T04:44:14.473Z,3.40
2023-03-29T04:46:42.927Z,3.50
2023-03-29T04:49:10.133Z,3.50
2023-03-29T04:51:37.353Z,3.87
2023-03-29T04:54:04.676Z,3.43
2023-03-29T04:56:31.928Z,3.37
2023-03-29T04:58:59.054Z,3.20
2023-03-29T05:01:26.302Z,3.40
2023-03-29T05:03:53.571Z,3.50
2023-03-29T05:06:25.031Z,3.50
2023-03-29T05:08:52.298Z,3.10
2023-03-29T05:11:19.790Z,3.20
2023-03-29T05:13:47.130Z,3.20
2023-03-29T05:16:15.868Z,3.37
2023-03-29T05:18:43.202Z,3.13
2023-03-29T05:21:10.350Z,3.20
2023-03-29T05:23:37.512Z,3.50
2023-03-29T05:26:05.120Z,3.30
2023-03-29T05:28:33.747Z,2.90
2023-03-29T05:31:04.467Z,3.10
2023-03-29T05:33:32.405Z,3.50
2023-03-29T05:36:05.642Z,3.43
2023-03-29T05:38:32.809Z,3.60
2023-03-29T05:41:01.131Z,3.40
2023-03-29T05:43:28.918Z,3.50
2023-03-29T05:45:56.511Z,3.43
2023-03-29T05:48:27.136Z,3.20
2023-03-29T05:50:56.345Z,3.50
2023-03-29T05:53:25.426Z,3.30
2023-03-29T05:55:52.724Z,3.43
2023-03-29T05:58:21.424Z,3.60
2023-03-29T06:00:49.789Z,3.60
2023-03-29T06:03:25.211Z,3.50
2023-03-29T06:06:02.284Z,4.10
2023-03-29T06:08:30.327Z,3.93
2023-03-29T06:11:02.460Z,3.43
2023-03-29T06:13:33.996Z,3.17
2023-03-29T06:16:01.790Z,4.00
2023-03-29T06:18:29.288Z,3.40
2023-03-29T06:20:56.539Z,3.40
2023-03-29T06:23:23.920Z,3.60
2023-03-29T06:25:55.331Z,3.63
2023-03-29T06:28:24.062Z,3.80
2023-03-29T06:30:53.448Z,3.30
2023-03-29T06:33:20.736Z,3.70
2023-03-29T06:35:49.488Z,3.50
2023-03-29T06:38:16.912Z,3.60
2023-03-29T06:40:44.762Z,3.50
2023-03-29T06:43:11.988Z,3.83
2023-03-29T06:45:40.110Z,3.43
2023-03-29T06:48:08.139Z,3.67
2023-03-29T06:50:35.634Z,3.50
2023-03-29T06:53:04.298Z,3.40
2023-03-29T06:55:31.682Z,3.78
2023-03-29T06:58:01.682Z,3.60
2023-03-29T07:00:30.085Z,3.40
2023-03-29T07:02:58.480Z,3.40
2023-03-29T07:05:28.682Z,3.27
2023-03-29T07:08:22.663Z,3.10
2023-03-29T07:10:53.174Z,3.30
2023-03-29T07:13:20.368Z,3.60
2023-03-29T07:15:47.583Z,3.10
2023-03-29T07:18:14.761Z,3.33
2023-03-29T07:20:42.481Z,3.30
2023-03-29T07:23:10.663Z,5.70
2023-03-29T07:25:38.483Z,3.73
2023-03-29T07:28:06.248Z,3.92
2023-03-29T07:30:33.801Z,3.57
2023-03-29T07:33:01.115Z,3.07
2023-03-29T07:35:29.101Z,3.13
2023-03-29T07:37:57.329Z,3.33
2023-03-29T07:40:26.108Z,3.13
2023-03-29T07:42:55.595Z,3.22
2023-03-29T07:45:26.813Z,2.80
2023-03-29T07:47:58.005Z,3.00
2023-03-29T07:50:26.534Z,3.20
2023-03-29T07:52:54.205Z,3.00
2023-03-29T07:55:22.062Z,2.78
2023-03-29T07:57:50.186Z,3.10
2023-03-29T08:00:19.774Z,2.97
2023-03-29T08:02:49.796Z,3.08
2023-03-29T08:05:29.072Z,3.10
2023-03-29T08:08:06.589Z,2.92
2023-03-29T08:10:34.283Z,2.90
2023-03-29T08:13:07.400Z,2.80
2023-03-29T08:15:36.498Z,2.78
2023-03-29T08:18:03.818Z,2.90
2023-03-29T08:20:32.144Z,3.22
2023-03-29T08:22:59.286Z,3.00
2023-03-29T08:25:27.032Z,2.80
2023-03-29T08:27:54.446Z,3.00
2023-03-29T08:30:24.993Z,2.80
2023-03-29T08:32:55.174Z,2.90
2023-03-29T08:35:22.862Z,2.70
2023-03-29T08:37:50.243Z,2.63
2023-03-29T08:40:22.324Z,2.80
2023-03-29T08:42:58.666Z,2.72
2023-03-29T08:45:37.008Z,2.50
2023-03-29T08:48:04.191Z,2.67
2023-03-29T08:50:38.429Z,2.65
2023-03-29T08:53:22.810Z,2.45
2023-03-29T08:55:52.921Z,2.70
2023-03-29T08:58:26.844Z,2.70
2023-03-29T09:00:57.552Z,2.35
2023-03-29T09:03:57.160Z,2.90
2023-03-29T09:06:24.475Z,2.50
2023-03-29T09:08:53.138Z,2.60
2023-03-29T09:11:56.545Z,2.67
2023-03-29T09:14:58.897Z,2.60
2023-03-29T09:17:31.042Z,2.45
2023-03-29T09:20:09.522Z,2.47
2023-03-29T09:23:13.959Z,2.50
2023-03-29T09:25:53.489Z,2.60
2023-03-29T09:28:37.022Z,2.40
2023-03-29T09:31:26.655Z,2.80
2023-03-29T09:33:58.939Z,2.70
2023-03-29T09:36:52.408Z,2.80
2023-03-29T09:39:23.721Z,2.85
2023-03-29T09:42:04.257Z,2.72
2023-03-29T09:44:37.215Z,2.20
2023-03-29T09:47:24.931Z,2.80
2023-03-29T09:49:57.472Z,2.53
2023-03-29T09:52:24.801Z,2.30
2023-03-29T09:54:52.482Z,2.53
2023-03-29T09:57:20.321Z,2.60
2023-03-29T09:59:50.542Z,2.60
2023-03-29T10:02:20.993Z,2.53
2023-03-29T10:04:55.782Z,2.88
2023-03-29T10:07:23.465Z,2.60
2023-03-29T10:09:55.123Z,2.75
2023-03-29T10:12:23.078Z,2.47
2023-03-29T10:14:53.994Z,2.53
2023-03-29T10:17:28.070Z,2.53
2023-03-29T10:20:04.186Z,2.70
2023-03-29T10:22:37.792Z,2.55
2023-03-29T10:25:13.547Z,2.47
2023-03-29T10:27:43.300Z,2.58
2023-03-29T10:30:18.507Z,2.58
2023-03-29T10:32:46.245Z,2.30
2023-03-29T10:35:34.668Z,2.65
2023-03-29T10:38:07.829Z,2.50
2023-03-29T10:40:41.357Z,2.53
2023-03-29T10:43:19.189Z,2.40
2023-03-29T10:46:05.032Z,2.30
2023-03-29T10:48:34.974Z,2.50
2023-03-29T10:51:05.665Z,2.10
2023-03-29T10:53:37.599Z,2.40
2023-03-29T10:56:34.033Z,2.60
2023-03-29T10:59:21.565Z,2.20
2023-03-29T11:01:51.977Z,2.40
2023-03-29T11:04:59.215Z,2.20
2023-03-29T11:07:29.136Z,2.40
2023-03-29T11:10:17.666Z,2.67
2023-03-29T11:12:55.454Z,2.30
2023-03-29T11:15:39.947Z,3.20
2023-03-29T11:18:38.080Z,3.80
2023-03-29T11:21:21.216Z,3.25
2023-03-29T11:24:07.070Z,2.70
2023-03-29T11:27:09.486Z,2.05
2023-03-29T11:29:49.594Z,2.20
2023-03-29T11:32:35.532Z,2.40
2023-03-29T11:35:42.612Z,2.40
2023-03-29T11:38:47.591Z,2.17
2023-03-29T11:41:38.006Z,2.50
2023-03-29T11:44:19.193Z,2.40
2023-03-29T11:46:51.946Z,2.10
2023-03-29T11:49:41.699Z,2.45
2023-03-29T11:52:29.684Z,2.40
2023-03-29T11:54:59.677Z,2.00
2023-03-29T11:57:42.277Z,2.33
2023-03-29T12:00:22.120Z,2.10
2023-03-29T12:03:06.742Z,2.30
2023-03-29T12:05:42.077Z,2.20
2023-03-29T12:08:18.255Z,2.13
2023-03-29T12:10:51.719Z,2.28
2023-03-29T12:13:29.060Z,2.30
2023-03-29T12:16:05.828Z,2.78
2023-03-29T12:18:46.443Z,2.10
2023-03-29T12:21:20.671Z,2.50
2023-03-29T12:23:49.040Z,2.22
2023-03-29T12:26:34.897Z,2.10
2023-03-29T12:29:14.102Z,2.10
2023-03-29T12:31:46.929Z,2.20
2023-03-29T12:34:35.316Z,2.58
2023-03-29T12:37:08.010Z,2.45
2023-03-29T12:39:36.877Z,2.40
2023-03-29T12:42:20.245Z,2.42
2023-03-29T12:45:01.667Z,2.53
2023-03-29T12:47:37.335Z,2.92
2023-03-29T12:50:04.847Z,2.78
2023-03-29T12:52:35.749Z,3.00
2023-03-29T12:55:20.594Z,3.00
2023-03-29T12:58:06.870Z,3.00
2023-03-29T13:00:36.887Z,2.95
2023-03-29T13:03:19.892Z,2.63
2023-03-29T13:05:48.213Z,2.70
2023-03-29T13:08:26.397Z,2.90
2023-03-29T13:10:55.741Z,2.72
2023-03-29T13:13:33.754Z,2.50
2023-03-29T13:16:18.354Z,2.70
2023-03-29T13:19:02.250Z,2.67
2023-03-29T13:21:44.724Z,2.47
2023-03-29T13:24:33.154Z,2.70
2023-03-29T13:27:28.879Z,2.83
2023-03-29T13:29:55.958Z,3.17
2023-03-29T13:32:39.645Z,2.50
2023-03-29T13:35:13.020Z,2.65
2023-03-29T13:38:08.081Z,2.58
2023-03-29T13:40:43.844Z,2.60
2023-03-29T13:43:20.050Z,2.50
2023-03-29T13:45:59.287Z,3.08
2023-03-29T13:48:35.879Z,2.78
2023-03-29T13:51:18.124Z,2.70
2023-03-29T13:53:54.782Z,2.75
2023-03-29T13:56:28.351Z,3.10
2023-03-29T13:59:05.609Z,3.95
2023-03-29T14:01:46.741Z,3.00
2023-03-29T14:04:26.578Z,3.13
2023-03-29T14:06:56.067Z,2.83
2023-03-29T14:09:28.457Z,2.90
2023-03-29T14:11:58.389Z,2.92
2023-03-29T14:14:28.420Z,2.90
2023-03-29T14:16:56.815Z,2.72
2023-03-29T14:19:38.146Z,3.05
2023-03-29T14:22:13.672Z,3.00
2023-03-29T14:24:49.916Z,3.17
2023-03-29T14:27:19.048Z,3.03
2023-03-29T14:29:51.312Z,2.67
2023-03-29T14:32:27.468Z,3.08
2023-03-29T14:34:54.674Z,2.70
2023-03-29T14:37:25.258Z,2.70
2023-03-29T14:39:53.342Z,3.10
2023-03-29T14:42:27.847Z,2.83
2023-03-29T14:45:04.118Z,2.92
2023-03-29T14:47:33.208Z,3.15
2023-03-29T14:50:01.680Z,2.70
2023-03-29T14:52:31.052Z,2.95
2023-03-29T14:55:00.873Z,2.60
2023-03-29T14:57:34.240Z,2.50
2023-03-29T15:00:35.009Z,2.88
2023-03-29T15:03:02.907Z,2.58
2023-03-29T15:05:37.118Z,3.00
2023-03-29T15:08:07.545Z,2.78
2023-03-29T15:10:37.726Z,2.60
2023-03-29T15:13:07.230Z,2.63
2023-03-29T15:15:37.542Z,2.70
2023-03-29T15:18:07.283Z,2.60
2023-03-29T15:20:38.333Z,2.75
2023-03-29T15:23:08.444Z,3.35
2023-03-29T15:25:48.477Z,3.28
2023-03-29T15:28:31.268Z,2.80
2023-03-29T15:31:07.726Z,3.67
2023-03-29T15:33:40.853Z,3.42
2023-03-29T15:36:10.495Z,3.28
2023-03-29T15:38:44.167Z,3.30
2023-03-29T15:41:14.306Z,3.63
2023-03-29T15:43:42.419Z,3.65
2023-03-29T15:46:12.716Z,3.38
2023-03-29T15:48:40.462Z,3.40
2023-03-29T15:51:09.956Z,3.00
2023-03-29T15:53:37.146Z,4.25
2023-03-29T15:56:07.925Z,4.13
2023-03-29T15:58:36.737Z,3.70
2023-03-29T16:01:34.523Z,3.00
2023-03-29T16:04:15.333Z,3.40
2023-03-29T16:06:44.154Z,3.05
2023-03-29T16:09:14.179Z,2.83
2023-03-29T16:11:42.741Z,2.97
2023-03-29T16:14:24.104Z,3.28
2023-03-29T16:16:52.299Z,3.28
2023-03-29T16:19:19.654Z,3.22
2023-03-29T16:21:48.069Z,3.35
2023-03-29T16:24:19.495Z,3.05
2023-03-29T16:26:47.384Z,3.10
2023-03-29T16:29:17.318Z,2.55
2023-03-29T16:31:45.574Z,3.20
2023-03-29T16:34:13.749Z,3.17
2023-03-29T16:36:41.130Z,3.28
2023-03-29T16:39:08.498Z,3.55
2023-03-29T16:41:35.649Z,3.20
2023-03-29T16:44:03.813Z,2.40
2023-03-29T16:46:31.383Z,3.47
2023-03-29T16:48:58.674Z,3.55
2023-03-29T16:51:26.145Z,3.50
2023-03-29T16:53:53.359Z,3.47
2023-03-29T16:56:20.707Z,3.10
2023-03-29T16:58:48.104Z,3.20
2023-03-29T17:01:17.163Z,2.75
2023-03-29T17:03:44.425Z,3.22
2023-03-29T17:06:12.331Z,3.28
2023-03-29T17:08:39.886Z,2.83
2023-03-29T17:11:07.095Z,3.10
2023-03-29T17:13:34.463Z,3.42
2023-03-29T17:16:02.245Z,3.20
2023-03-29T17:18:30.023Z,3.00
2023-03-29T17:20:58.724Z,3.67
2023-03-29T17:23:26.275Z,3.53
2023-03-29T17:25:56.480Z,3.30
2023-03-29T17:28:24.386Z,3.30
2023-03-29T17:30:51.673Z,3.65
2023-03-29T17:33:22.815Z,4.28
2023-03-29T17:35:50.167Z,3.28
2023-03-29T17:38:17.506Z,3.30
2023-03-29T17:40:51.375Z,3.45
2023-03-29T17:43:18.624Z,3.55
2023-03-29T17:45:46.388Z,4.25
2023-03-29T17:48:13.595Z,3.95
2023-03-29T17:50:41.188Z,3.80
2023-03-29T17:53:08.373Z,3.60
2023-03-29T17:55:35.615Z,4.05
2023-03-29T17:58:02.749Z,4.00
2023-03-29T18:00:29.902Z,4.57
2023-03-29T18:02:57.237Z,4.88
2023-03-29T18:05:24.463Z,4.15
2023-03-29T18:07:51.864Z,4.03
2023-03-29T18:10:19.220Z,3.50
2023-03-29T18:12:46.332Z,3.40
2023-03-29T18:15:13.599Z,3.90
2023-03-29T18:17:40.740Z,3.25
2023-03-29T18:20:10.929Z,4.40
2023-03-29T18:22:42.181Z,4.55
2023-03-29T18:25:10.131Z,4.20
2023-03-29T18:27:38.772Z,3.50
2023-03-29T18:30:08.593Z,3.90
2023-03-29T18:32:36.613Z,3.50
2023-03-29T18:35:04.830Z,3.50
2023-03-29T18:37:32.261Z,3.47
2023-03-29T18:40:00.211Z,3.50
2023-03-29T18:42:27.484Z,3.80
2023-03-29T18:44:54.681Z,3.30
2023-03-29T18:47:22.330Z,2.60
2023-03-29T18:49:49.535Z,3.63
2023-03-29T18:52:16.919Z,3.83
2023-03-29T18:54:44.186Z,3.53
2023-03-29T18:57:11.620Z,3.67
2023-03-29T18:59:39.019Z,4.97
2023-03-29T19:02:06.970Z,3.80
2023-03-29T19:04:34.687Z,3.70
2023-03-29T19:07:02.946Z,3.30
2023-03-29T19:09:30.846Z,3.50
2023-03-29T19:11:58.048Z,3.60
2023-03-29T19:14:25.406Z,3.80
2023-03-29T19:16:53.101Z,3.25
2023-03-29T19:19:22.426Z,3.10
2023-03-29T19:21:50.068Z,3.47
2023-03-29T19:24:17.269Z,3.83
2023-03-29T19:26:44.751Z,3.35
2023-03-29T19:29:12.446Z,3.60
2023-03-29T19:31:39.853Z,3.28
2023-03-29T19:34:09.525Z,3.40
2023-03-29T19:36:37.399Z,3.67
2023-03-29T19:39:05.575Z,3.60
2023-03-29T19:41:32.892Z,3.50
2023-03-29T19:44:00.122Z,4.30
2023-03-29T19:46:28.897Z,3.80
2023-03-29T19:48:56.201Z,3.97
2023-03-29T19:51:23.651Z,4.20
2023-03-29T19:53:50.886Z,3.70
2023-03-29T19:56:18.118Z,3.58
2023-03-29T19:58:46.726Z,3.70
2023-03-29T20:01:15.624Z,3.78
2023-03-29T20:03:43.766Z,3.97
2023-03-29T20:06:11.222Z,3.58
2023-03-29T20:08:38.944Z,3.72
2023-03-29T20:11:10.211Z,3.28
2023-03-29T20:13:41.010Z,4.03
2023-03-29T20:16:13.980Z,3.78
2023-03-29T20:18:41.643Z,3.78
2023-03-29T20:21:09.083Z,4.20
2023-03-29T20:23:36.550Z,3.50
2023-03-29T20:26:03.828Z,4.25
2023-03-29T20:28:31.533Z,3.58
2023-03-29T20:31:03.474Z,3.70
2023-03-29T20:33:30.922Z,5.70
2023-03-29T20:35:58.362Z,3.78
2023-03-29T20:38:25.894Z,3.47
2023-03-29T20:40:53.828Z,3.20
2023-03-29T20:43:21.149Z,3.75
2023-03-29T20:45:53.407Z,3.47
2023-03-29T20:48:23.329Z,3.75
2023-03-29T20:50:51.672Z,3.95
2023-03-29T20:53:20.517Z,3.97
2023-03-29T20:55:48.349Z,4.88
2023-03-29T20:58:15.894Z,4.10
